createdAt,value
2022-09-15T00:00:29.528Z,18.50
2022-09-15T00:02:56.330Z,18.50
2022-09-15T00:05:23.026Z,18.50
2022-09-15T00:07:49.610Z,18.50
2022-09-15T00:10:17.355Z,18.50
2022-09-15T00:12:44.076Z,18.40
2022-09-15T00:15:14.581Z,18.40
2022-09-15T00:17:42.470Z,18.40
2022-09-15T00:20:10.109Z,18.50
2022-09-15T00:22:36.684Z,18.40
2022-09-15T00:25:04.062Z,18.50
2022-09-15T00:27:32.358Z,18.50
2022-09-15T00:29:59.040Z,18.50
2022-09-15T00:32:26.072Z,18.60
2022-09-15T00:34:53.503Z,18.40
2022-09-15T00:37:20.553Z,18.50
2022-09-15T00:39:47.479Z,18.40
2022-09-15T00:42:19.956Z,18.40
2022-09-15T00:44:52.243Z,18.30
2022-09-15T00:47:22.571Z,18.30
2022-09-15T00:49:58.809Z,18.30
2022-09-15T00:52:37.661Z,18.40
2022-09-15T00:55:12.500Z,18.40
2022-09-15T00:57:51.719Z,18.40
2022-09-15T01:00:21.165Z,18.40
2022-09-15T01:02:49.276Z,18.30
2022-09-15T01:05:18.783Z,18.40
2022-09-15T01:07:57.292Z,18.30
2022-09-15T01:10:29.412Z,18.30
2022-09-15T01:13:00.196Z,18.30
2022-09-15T01:15:50.285Z,18.20
2022-09-15T01:18:40.966Z,18.20
2022-09-15T01:21:45.122Z,18.10
2022-09-15T01:24:23.252Z,18.20
2022-09-15T01:27:30.488Z,18.10
2022-09-15T01:30:09.163Z,18.10
2022-09-15T01:33:03.879Z,18.10
2022-09-15T01:35:34.283Z,18.10
2022-09-15T01:38:25.528Z,18.10
2022-09-15T01:41:02.066Z,18.20
2022-09-15T01:43:30.308Z,18.20
2022-09-15T01:45:57.696Z,18.10
2022-09-15T01:48:26.446Z,18.10
2022-09-15T01:50:57.563Z,18.10
2022-09-15T01:53:24.438Z,18.10
2022-09-15T01:56:02.638Z,18.10
2022-09-15T01:58:29.260Z,18.10
2022-09-15T02:01:19.969Z,18.00
2022-09-15T02:03:56.575Z,18.00
2022-09-15T02:06:35.954Z,18.00
2022-09-15T02:09:21.167Z,18.00
2022-09-15T02:12:12.253Z,17.90
2022-09-15T02:14:56.741Z,17.90
2022-09-15T02:17:27.648Z,17.80
2022-09-15T02:20:03.254Z,17.80
2022-09-15T02:22:34.577Z,17.80
2022-09-15T02:25:20.257Z,17.80
2022-09-15T02:27:52.740Z,17.70
2022-09-15T02:30:21.038Z,17.70
2022-09-15T02:32:57.880Z,17.70
2022-09-15T02:35:28.615Z,17.70
2022-09-15T02:37:56.188Z,17.70
2022-09-15T02:40:23.364Z,17.70
2022-09-15T02:43:00.981Z,17.60
2022-09-15T02:45:28.237Z,17.60
2022-09-15T02:47:55.011Z,17.50
2022-09-15T02:50:21.678Z,17.50
2022-09-15T02:52:48.284Z,17.50
2022-09-15T02:55:15.759Z,17.40
2022-09-15T02:57:42.372Z,17.40
2022-09-15T03:00:13.115Z,17.50
2022-09-15T03:02:41.071Z,17.50
2022-09-15T03:05:09.339Z,17.40
2022-09-15T03:07:37.526Z,17.40
2022-09-15T03:10:06.010Z,17.30
2022-09-15T03:12:44.523Z,17.30
2022-09-15T03:15:13.199Z,17.30
2022-09-15T03:17:42.010Z,17.30
2022-09-15T03:20:11.248Z,17.30
2022-09-15T03:22:38.318Z,17.20
2022-09-15T03:25:06.505Z,17.10
2022-09-15T03:27:34.642Z,17.10
2022-09-15T03:30:01.846Z,17.00
2022-09-15T03:32:28.539Z,17.00
2022-09-15T03:34:58.340Z,16.90
2022-09-15T03:37:25.893Z,17.00
2022-09-15T03:39:52.647Z,16.90
2022-09-15T03:42:19.809Z,16.90
2022-09-15T03:44:46.399Z,16.80
2022-09-15T03:47:25.690Z,16.80
2022-09-15T03:49:52.465Z,16.70
2022-09-15T03:52:19.082Z,16.70
2022-09-15T03:54:45.642Z,16.60
2022-09-15T03:57:12.211Z,16.50
2022-09-15T03:59:38.768Z,16.50
2022-09-15T04:02:05.429Z,16.50
2022-09-15T04:04:32.084Z,16.30
2022-09-15T04:06:58.671Z,16.30
2022-09-15T04:09:25.649Z,16.30
2022-09-15T04:11:52.361Z,16.30
2022-09-15T04:14:18.946Z,16.30
2022-09-15T04:16:45.544Z,16.20
2022-09-15T04:19:12.243Z,16.20
2022-09-15T04:21:38.842Z,16.20
2022-09-15T04:24:05.901Z,16.20
2022-09-15T04:26:34.520Z,16.10
2022-09-15T04:29:04.519Z,16.10
2022-09-15T04:31:33.086Z,16.00
2022-09-15T04:33:59.867Z,15.90
2022-09-15T04:36:28.172Z,15.90
2022-09-15T04:38:55.413Z,15.90
2022-09-15T04:41:23.116Z,15.90
2022-09-15T04:43:50.443Z,15.90
2022-09-15T04:46:18.473Z,15.90
2022-09-15T04:48:45.994Z,15.90
2022-09-15T04:51:15.857Z,15.90
2022-09-15T04:53:43.366Z,15.90
2022-09-15T04:56:16.218Z,16.00
2022-09-15T04:58:48.316Z,16.00
2022-09-15T05:01:23.185Z,16.10
2022-09-15T05:03:50.450Z,16.10
2022-09-15T05:06:20.191Z,16.10
2022-09-15T05:08:51.078Z,16.10
2022-09-15T05:11:18.765Z,16.20
2022-09-15T05:13:45.725Z,16.10
2022-09-15T05:16:13.939Z,16.20
2022-09-15T05:18:41.982Z,16.20
2022-09-15T05:21:09.997Z,16.30
2022-09-15T05:23:37.460Z,16.30
2022-09-15T05:26:11.737Z,16.30
2022-09-15T05:28:38.935Z,16.30
2022-09-15T05:31:20.254Z,16.40
2022-09-15T05:33:49.163Z,16.40
2022-09-15T05:36:17.266Z,16.40
2022-09-15T05:38:44.600Z,16.40
2022-09-15T05:41:13.652Z,16.40
2022-09-15T05:43:40.601Z,16.40
2022-09-15T05:46:08.260Z,16.40
2022-09-15T05:48:35.198Z,16.40
2022-09-15T05:51:02.576Z,16.50
2022-09-15T05:53:29.401Z,16.50
2022-09-15T05:56:01.141Z,16.60
2022-09-15T05:58:28.037Z,16.50
2022-09-15T06:00:55.035Z,16.60
2022-09-15T06:03:27.490Z,16.60
2022-09-15T06:06:01.402Z,16.60
2022-09-15T06:08:54.205Z,16.70
2022-09-15T06:11:27.328Z,16.70
2022-09-15T06:13:53.967Z,16.80
2022-09-15T06:16:22.713Z,16.80
2022-09-15T06:18:52.117Z,16.80
2022-09-15T06:21:21.925Z,16.80
2022-09-15T06:23:59.813Z,16.80
2022-09-15T06:26:27.765Z,16.80
2022-09-15T06:29:00.454Z,16.80
2022-09-15T06:31:28.824Z,16.80
2022-09-15T06:33:57.530Z,16.70
2022-09-15T06:36:29.068Z,16.80
2022-09-15T06:38:56.287Z,16.70
2022-09-15T06:41:23.334Z,16.80
2022-09-15T06:43:50.011Z,16.80
2022-09-15T06:46:19.707Z,16.80
2022-09-15T06:48:48.488Z,16.70
2022-09-15T06:51:18.126Z,16.80
2022-09-15T06:53:45.458Z,16.80
2022-09-15T06:56:14.635Z,16.80
2022-09-15T06:58:42.869Z,16.80
2022-09-15T07:01:18.659Z,16.80
2022-09-15T07:03:45.424Z,16.80
2022-09-15T07:06:12.301Z,16.70
2022-09-15T07:08:39.826Z,16.60
2022-09-15T07:11:07.134Z,16.60
2022-09-15T07:13:34.335Z,16.60
2022-09-15T07:16:03.959Z,16.60
2022-09-15T07:18:31.282Z,16.60
2022-09-15T07:21:10.832Z,16.50
2022-09-15T07:23:37.745Z,16.40
2022-09-15T07:26:16.273Z,16.40
2022-09-15T07:28:46.592Z,16.30
2022-09-15T07:31:16.270Z,16.30
2022-09-15T07:33:43.079Z,16.40
2022-09-15T07:36:10.441Z,16.40
2022-09-15T07:38:41.527Z,16.40
2022-09-15T07:41:11.040Z,16.50
2022-09-15T07:43:38.167Z,16.50
2022-09-15T07:46:05.730Z,16.60
2022-09-15T07:48:32.558Z,16.60
2022-09-15T07:50:59.938Z,16.70
2022-09-15T07:53:30.241Z,16.70
2022-09-15T07:55:57.552Z,16.70
2022-09-15T07:58:24.965Z,16.80
2022-09-15T08:00:52.155Z,16.90
2022-09-15T08:03:18.874Z,16.90
2022-09-15T08:05:46.222Z,16.90
2022-09-15T08:08:13.141Z,16.90
2022-09-15T08:10:41.248Z,16.90
2022-09-15T08:13:08.426Z,17.00
2022-09-15T08:15:38.664Z,17.10
2022-09-15T08:18:06.189Z,17.00
2022-09-15T08:20:33.422Z,17.10
2022-09-15T08:23:00.328Z,17.20
2022-09-15T08:25:27.201Z,17.20
2022-09-15T08:27:54.939Z,17.20
2022-09-15T08:30:22.161Z,17.10
2022-09-15T08:32:49.530Z,17.10
2022-09-15T08:35:17.203Z,17.20
2022-09-15T08:37:44.142Z,17.20
2022-09-15T08:40:19.261Z,17.20
2022-09-15T08:42:48.569Z,17.30
2022-09-15T08:45:24.360Z,17.30
2022-09-15T08:47:56.037Z,17.20
2022-09-15T08:50:31.031Z,17.20
2022-09-15T08:53:03.321Z,17.30
2022-09-15T08:55:49.199Z,17.30
2022-09-15T08:58:25.336Z,17.40
2022-09-15T09:01:02.682Z,17.50
2022-09-15T09:03:41.351Z,17.50
2022-09-15T09:06:43.567Z,17.60
2022-09-15T09:09:47.434Z,17.80
2022-09-15T09:12:32.198Z,17.80
2022-09-15T09:15:31.192Z,17.90
2022-09-15T09:18:33.146Z,17.90
2022-09-15T09:21:13.391Z,18.00
2022-09-15T09:23:50.568Z,18.10
2022-09-15T09:26:17.741Z,18.20
2022-09-15T09:28:58.784Z,18.30
2022-09-15T09:31:27.264Z,18.30
2022-09-15T09:34:15.685Z,18.40
2022-09-15T09:36:42.979Z,18.40
2022-09-15T09:39:15.058Z,18.40
2022-09-15T09:41:42.341Z,18.40
2022-09-15T09:44:14.615Z,18.40
2022-09-15T09:46:41.783Z,18.40
2022-09-15T09:49:18.840Z,18.50
2022-09-15T09:51:53.408Z,18.50
2022-09-15T09:54:22.618Z,18.40
2022-09-15T09:56:51.228Z,18.30
2022-09-15T09:59:49.861Z,18.40
2022-09-15T10:02:23.113Z,18.40
2022-09-15T10:04:52.449Z,18.50
2022-09-15T10:07:25.773Z,18.40
2022-09-15T10:09:53.829Z,18.40
2022-09-15T10:12:24.509Z,18.50
2022-09-15T10:14:54.454Z,18.50
2022-09-15T10:17:46.629Z,18.40
2022-09-15T10:20:46.482Z,18.40
2022-09-15T10:23:21.463Z,18.30
2022-09-15T10:25:59.629Z,18.40
2022-09-15T10:28:27.749Z,18.40
2022-09-15T10:31:13.498Z,18.50
2022-09-15T10:33:44.492Z,18.60
2022-09-15T10:36:28.065Z,18.50
2022-09-15T10:39:17.899Z,18.60
2022-09-15T10:42:11.015Z,18.60
2022-09-15T10:44:47.890Z,18.60
2022-09-15T10:47:35.439Z,18.60
2022-09-15T10:50:17.108Z,18.60
2022-09-15T10:53:02.288Z,18.50
2022-09-15T10:55:52.798Z,18.60
2022-09-15T10:58:43.525Z,18.50
2022-09-15T11:01:30.290Z,18.50
2022-09-15T11:04:28.728Z,18.40
2022-09-15T11:07:10.618Z,18.40
2022-09-15T11:09:49.787Z,18.30
2022-09-15T11:12:31.170Z,18.30
2022-09-15T11:15:03.571Z,18.30
2022-09-15T11:18:08.039Z,18.30
2022-09-15T11:20:52.177Z,18.30
2022-09-15T11:23:33.132Z,18.40
2022-09-15T11:26:05.928Z,18.50
2022-09-15T11:28:47.443Z,18.50
2022-09-15T11:31:23.707Z,18.60
2022-09-15T11:33:58.307Z,18.60
2022-09-15T11:36:43.256Z,18.60
2022-09-15T11:39:51.904Z,18.60
2022-09-15T11:42:48.955Z,18.60
2022-09-15T11:45:25.397Z,18.70
2022-09-15T11:48:28.265Z,18.60
2022-09-15T11:50:58.176Z,18.60
2022-09-15T11:53:33.776Z,18.70
2022-09-15T11:56:13.066Z,18.70
2022-09-15T11:59:03.614Z,18.80
2022-09-15T12:01:52.990Z,18.80
2022-09-15T12:04:29.112Z,18.90
2022-09-15T12:07:02.719Z,18.90
2022-09-15T12:09:29.340Z,19.00
2022-09-15T12:12:05.908Z,19.10
2022-09-15T12:14:46.635Z,19.10
2022-09-15T12:17:44.893Z,19.10
2022-09-15T12:20:25.113Z,19.20
2022-09-15T12:23:13.575Z,19.20
2022-09-15T12:26:08.217Z,19.30
2022-09-15T12:28:58.866Z,19.40
2022-09-15T12:31:29.482Z,19.40
2022-09-15T12:34:16.128Z,19.40
2022-09-15T12:36:46.869Z,19.50
2022-09-15T12:39:45.642Z,19.50
2022-09-15T12:42:25.023Z,19.60
2022-09-15T12:45:04.299Z,19.70
2022-09-15T12:47:51.451Z,19.80
2022-09-15T12:50:36.807Z,19.80
2022-09-15T12:53:21.593Z,19.80
2022-09-15T12:55:58.250Z,19.80
2022-09-15T12:58:41.492Z,19.80
2022-09-15T13:01:31.340Z,19.80
2022-09-15T13:03:57.920Z,19.80
2022-09-15T13:06:25.596Z,19.80
2022-09-15T13:09:01.451Z,19.70
2022-09-15T13:11:39.987Z,19.80
2022-09-15T13:14:14.647Z,19.70
2022-09-15T13:16:41.170Z,19.70
2022-09-15T13:19:26.656Z,19.60
2022-09-15T13:22:11.803Z,19.60
2022-09-15T13:24:41.383Z,19.50
2022-09-15T13:27:08.960Z,19.50
2022-09-15T13:29:48.249Z,19.60
2022-09-15T13:32:44.419Z,19.60
2022-09-15T13:35:24.962Z,19.60
2022-09-15T13:38:35.869Z,19.70
2022-09-15T13:41:34.136Z,19.80
2022-09-15T13:44:26.958Z,19.80
2022-09-15T13:47:15.015Z,19.90
2022-09-15T13:49:50.423Z,19.90
2022-09-15T13:52:22.130Z,19.90
2022-09-15T13:55:26.140Z,19.90
2022-09-15T14:00:51.714Z,19.90
2022-09-15T14:03:25.661Z,20.00
2022-09-15T14:05:54.150Z,20.10
2022-09-15T14:08:28.275Z,20.10
2022-09-15T14:10:56.312Z,20.10
2022-09-15T14:13:26.729Z,20.00
2022-09-15T14:16:02.184Z,19.90
2022-09-15T14:18:29.986Z,19.90
2022-09-15T14:21:04.509Z,19.90
2022-09-15T14:23:32.596Z,19.90
2022-09-15T14:26:01.516Z,19.90
2022-09-15T14:28:32.679Z,19.80
2022-09-15T14:31:01.133Z,19.70
2022-09-15T14:33:38.132Z,19.80
2022-09-15T14:36:28.233Z,19.80
2022-09-15T14:39:16.326Z,19.80
2022-09-15T14:41:43.639Z,19.90
2022-09-15T14:47:28.641Z,20.00
2022-09-15T14:50:18.109Z,20.00
2022-09-15T14:53:07.472Z,20.00
2022-09-15T14:56:08.306Z,20.00
2022-09-15T14:58:48.115Z,19.90
2022-09-15T15:01:24.904Z,19.90
2022-09-15T15:04:12.192Z,19.90
2022-09-15T15:07:04.872Z,19.90
2022-09-15T15:09:31.891Z,20.00
2022-09-15T15:12:04.428Z,19.90
2022-09-15T15:14:31.311Z,19.90
2022-09-15T15:17:06.176Z,19.90
2022-09-15T15:19:38.956Z,20.00
2022-09-15T15:22:15.347Z,20.00
2022-09-15T15:24:46.089Z,20.00
2022-09-15T15:27:34.297Z,19.80
2022-09-15T15:30:26.616Z,19.80
2022-09-15T15:32:53.991Z,19.90
2022-09-15T15:35:21.224Z,19.80
2022-09-15T15:37:49.279Z,19.80
2022-09-15T15:40:20.973Z,19.80
2022-09-15T15:42:59.432Z,19.80
2022-09-15T15:45:33.740Z,19.80
2022-09-15T15:48:03.274Z,19.80
2022-09-15T15:50:32.646Z,19.80
2022-09-15T15:53:00.692Z,19.80
2022-09-15T15:55:39.414Z,19.70
2022-09-15T15:58:06.162Z,19.70
2022-09-15T16:00:38.305Z,19.70
2022-09-15T16:03:05.677Z,19.70
2022-09-15T16:05:33.803Z,19.80
2022-09-15T16:08:18.818Z,19.80
2022-09-15T16:10:48.466Z,19.70
2022-09-15T16:13:20.594Z,19.70
2022-09-15T16:15:48.229Z,19.70
2022-09-15T16:18:15.199Z,19.70
2022-09-15T16:20:42.530Z,19.60
2022-09-15T16:23:15.298Z,19.60
2022-09-15T16:26:03.910Z,19.60
2022-09-15T16:28:30.672Z,19.60
2022-09-15T16:30:57.793Z,19.50
2022-09-15T16:33:25.323Z,19.50
2022-09-15T16:36:06.876Z,19.50
2022-09-15T16:38:34.854Z,19.50
2022-09-15T16:41:03.540Z,19.40
2022-09-15T16:43:30.542Z,19.40
2022-09-15T16:45:57.411Z,19.40
2022-09-15T16:48:24.217Z,19.40
2022-09-15T16:51:16.827Z,19.40
2022-09-15T16:53:39.403Z,19.40
2022-09-15T16:56:07.473Z,19.40
2022-09-15T16:58:34.144Z,19.40
2022-09-15T17:01:00.983Z,19.30
2022-09-15T17:03:28.159Z,19.30
2022-09-15T17:05:57.473Z,19.30
2022-09-15T17:08:28.640Z,19.30
2022-09-15T17:11:00.067Z,19.30
2022-09-15T17:13:30.405Z,19.30
2022-09-15T17:15:58.551Z,19.30
2022-09-15T17:18:25.884Z,19.20
2022-09-15T17:20:53.321Z,19.20
2022-09-15T17:23:34.657Z,19.20
2022-09-15T17:26:04.835Z,19.20
2022-09-15T17:28:34.336Z,19.20
2022-09-15T17:31:06.058Z,19.10
2022-09-15T17:33:33.272Z,19.10
2022-09-15T17:36:00.288Z,19.10
2022-09-15T17:38:27.515Z,19.10
2022-09-15T17:40:55.428Z,19.10
2022-09-15T17:43:27.935Z,19.10
2022-09-15T17:45:55.221Z,19.00
2022-09-15T17:48:22.466Z,19.00
2022-09-15T17:50:49.660Z,19.00
2022-09-15T17:53:21.275Z,19.00
2022-09-15T17:55:49.047Z,19.00
2022-09-15T17:58:16.411Z,19.00
2022-09-15T18:00:44.614Z,19.00
2022-09-15T18:03:23.234Z,19.00
2022-09-15T18:05:50.955Z,19.00
2022-09-15T18:08:17.690Z,19.00
2022-09-15T18:10:44.995Z,19.00
2022-09-15T18:13:21.455Z,19.00
2022-09-15T18:15:51.455Z,19.00
2022-09-15T18:18:21.102Z,19.00
2022-09-15T18:20:49.867Z,19.00
2022-09-15T18:23:21.852Z,19.00
2022-09-15T18:25:49.730Z,19.00
2022-09-15T18:28:17.985Z,18.90
2022-09-15T18:30:47.428Z,18.90
2022-09-15T18:33:21.333Z,18.90
2022-09-15T18:35:49.381Z,19.00
2022-09-15T18:38:16.471Z,18.90
2022-09-15T18:40:55.235Z,18.90
2022-09-15T18:43:23.236Z,18.80
2022-09-15T18:45:50.192Z,18.90
2022-09-15T18:48:16.872Z,18.70
2022-09-15T18:50:44.856Z,18.70
2022-09-15T18:53:12.181Z,18.60
2022-09-15T18:55:41.764Z,18.60
2022-09-15T18:58:08.815Z,18.60
2022-09-15T19:00:35.788Z,18.70
2022-09-15T19:03:05.130Z,18.70
2022-09-15T19:05:33.014Z,18.60
2022-09-15T19:08:00.301Z,18.60
2022-09-15T19:10:27.222Z,18.60
2022-09-15T19:12:54.477Z,18.50
2022-09-15T19:15:24.660Z,18.50
2022-09-15T19:17:51.525Z,18.50
2022-09-15T19:20:18.472Z,18.50
2022-09-15T19:22:45.949Z,18.50
2022-09-15T19:25:12.813Z,18.50
2022-09-15T19:27:40.189Z,18.50
2022-09-15T19:30:09.797Z,18.50
2022-09-15T19:32:36.784Z,18.50
2022-09-15T19:35:03.805Z,18.50
2022-09-15T19:37:30.709Z,18.50
2022-09-15T19:39:57.361Z,18.30
2022-09-15T19:42:23.978Z,18.20
2022-09-15T19:44:50.652Z,18.20
2022-09-15T19:47:17.298Z,18.30
2022-09-15T19:49:44.118Z,18.30
2022-09-15T19:52:11.037Z,18.20
2022-09-15T19:54:37.598Z,18.20
2022-09-15T19:57:04.499Z,18.30
2022-09-15T19:59:32.072Z,18.30
2022-09-15T20:02:00.558Z,18.30
2022-09-15T20:04:27.991Z,18.30
2022-09-15T20:06:54.767Z,18.30
2022-09-15T20:09:21.488Z,18.30
2022-09-15T20:11:48.305Z,18.30
2022-09-15T20:14:16.688Z,18.30
2022-09-15T20:16:43.295Z,18.30
2022-09-15T20:19:10.064Z,18.30
2022-09-15T20:21:50.435Z,18.30
2022-09-15T20:24:18.587Z,18.30
2022-09-15T20:26:45.194Z,18.20
2022-09-15T20:29:12.199Z,18.20
2022-09-15T20:31:39.254Z,18.20
2022-09-15T20:34:05.942Z,18.20
2022-09-15T20:36:35.371Z,18.10
2022-09-15T20:39:04.098Z,18.10
2022-09-15T20:41:34.363Z,18.10
2022-09-15T20:44:01.075Z,18.10
2022-09-15T20:46:31.500Z,18.10
2022-09-15T20:48:58.114Z,18.10
2022-09-15T20:51:28.080Z,18.10
2022-09-15T20:53:56.620Z,18.00
2022-09-15T20:56:25.489Z,18.00
2022-09-15T20:58:58.592Z,18.00
2022-09-15T21:01:32.358Z,17.90
2022-09-15T21:03:59.182Z,17.90
2022-09-15T21:06:27.743Z,17.90
2022-09-15T21:08:58.514Z,17.90
2022-09-15T21:11:27.427Z,17.80
2022-09-15T21:13:55.150Z,17.90
2022-09-15T21:16:24.773Z,17.80
2022-09-15T21:18:51.897Z,17.90
2022-09-15T21:21:24.086Z,17.90
2022-09-15T21:23:53.773Z,18.00
2022-09-15T21:26:23.422Z,18.00
2022-09-15T21:28:50.748Z,17.90
2022-09-15T21:31:22.387Z,18.00
2022-09-15T21:33:49.952Z,18.00
2022-09-15T21:36:25.125Z,17.80
2022-09-15T21:38:53.934Z,17.70
2022-09-15T21:41:23.610Z,17.60
2022-09-15T21:43:58.470Z,17.60
2022-09-15T21:46:27.924Z,17.60
2022-09-15T21:48:57.375Z,17.50
2022-09-15T21:51:25.436Z,17.40
2022-09-15T21:53:53.847Z,17.30
2022-09-15T21:56:21.152Z,17.30
2022-09-15T21:58:47.823Z,17.30
2022-09-15T22:01:25.899Z,17.30
2022-09-15T22:03:57.593Z,17.30
2022-09-15T22:06:32.301Z,17.30
2022-09-15T22:09:05.659Z,17.30
2022-09-15T22:14:01.761Z,17.40
2022-09-15T22:16:28.804Z,17.30
2022-09-15T22:18:55.481Z,17.40
2022-09-15T22:21:27.482Z,17.40
2022-09-15T22:23:56.112Z,17.40
2022-09-15T22:26:26.134Z,17.50
2022-09-15T22:28:53.716Z,17.40
2022-09-15T22:31:22.101Z,17.40
2022-09-15T22:33:48.872Z,17.30
2022-09-15T22:36:23.991Z,17.30
2022-09-15T22:38:53.975Z,17.30
2022-09-15T22:41:21.492Z,17.20
2022-09-15T22:43:49.861Z,17.10
2022-09-15T22:46:17.911Z,17.10
2022-09-15T22:48:44.926Z,17.10
2022-09-15T22:51:12.317Z,17.00
2022-09-15T22:53:39.020Z,16.90
2022-09-15T22:56:09.011Z,16.90
2022-09-15T22:58:36.550Z,16.90
2022-09-15T23:01:04.661Z,16.80
2022-09-15T23:03:31.640Z,16.90
2022-09-15T23:06:01.966Z,16.80
2022-09-15T23:08:30.073Z,16.80
2022-09-15T23:11:02.803Z,16.80
2022-09-15T23:13:29.831Z,16.70
2022-09-15T23:15:56.489Z,16.70
2022-09-15T23:18:23.179Z,16.70
2022-09-15T23:20:56.707Z,16.80
2022-09-15T23:23:23.303Z,16.80
2022-09-15T23:25:49.989Z,16.70
2022-09-15T23:28:16.622Z,16.70
2022-09-15T23:30:43.478Z,16.70
2022-09-15T23:33:10.170Z,16.60
2022-09-15T23:35:37.000Z,16.60
2022-09-15T23:38:03.590Z,16.60
2022-09-15T23:40:30.277Z,16.60
2022-09-15T23:42:56.886Z,16.50
2022-09-15T23:45:23.442Z,16.40
2022-09-15T23:47:50.023Z,16.40
2022-09-15T23:50:16.730Z,16.40
2022-09-15T23:52:43.284Z,16.30
2022-09-15T23:55:09.862Z,16.40
2022-09-15T23:57:36.542Z,16.30
